Time;durP1;ratioP1;P1;durP2;ratioP2;P2;SDS_P1;SDS_P2;PMS_P1;PMS_P2;Temp;Humidity;BMP_temperature;BMP_pressure;BME280_temperature;BME280_humidity;BME280_pressure;Samples;Min_cycle;Max_cycle;Signal;HPM_P1;HPM_P2
2023/12/05 00:00:08;;;;;;;4.18;1.95;;;;;;;3.83;91.23;98232.16;338331;28;4657;-77
2023/12/05 00:00:20;;;;;;;4.25;1.80;;;;;;;3.81;91.43;98233.91;337739;28;17777;-78
2023/12/05 00:00:32;;;;;;;3.78;1.65;;;;;;;3.74;91.57;98240.97;339374;28;4960;-74
2023/12/05 00:00:44;;;;;;;4.30;1.92;;;;;;;3.73;92.18;98241.00;336385;28;4584;-75
2023/12/05 00:00:56;;;;;;;4.40;2.22;;;;;;;3.75;91.71;98234.94;337546;28;18237;-74
2023/12/05 00:01:08;;;;;;;4.45;2.08;;;;;;;3.75;91.93;98240.06;341462;28;4616;-75
2023/12/05 00:01:21;;;;;;;4.40;1.90;;;;;;;3.78;92.03;98234.00;338407;28;18079;-76
2023/12/05 00:01:33;;;;;;;3.55;1.80;;;;;;;3.79;92.04;98235.69;339689;28;4761;-76
2023/12/05 00:01:45;;;;;;;3.70;2.00;;;;;;;3.82;92.09;98239.91;337489;28;9354;-76
2023/12/05 00:01:57;;;;;;;3.53;1.90;;;;;;;3.83;91.58;98234.72;339496;28;17950;-78
2023/12/05 00:02:09;;;;;;;3.13;1.85;;;;;;;3.84;91.88;98233.81;339663;28;5073;-77
2023/12/05 00:02:22;;;;;;;3.78;2.03;;;;;;;3.84;92.38;98238.97;338769;28;13215;-78
2023/12/05 00:02:34;;;;;;;3.78;2.15;;;;;;;3.88;91.92;98240.56;341527;28;5007;-78
2023/12/05 00:02:46;;;;;;;3.78;1.90;;;;;;;3.88;92.13;98237.16;338310;28;13693;-78
2023/12/05 00:02:58;;;;;;;4.32;1.92;;;;;;;3.89;92.10;98234.53;337951;28;18011;-77
2023/12/05 00:03:11;;;;;;;5.22;1.95;;;;;;;3.88;91.62;98234.59;341092;28;5310;-76
2023/12/05 00:03:27;;;;;;;4.63;2.13;;;;;;;3.90;92.38;98228.50;338911;28;16200;-76
2023/12/05 00:03:40;;;;;;;4.20;2.20;;;;;;;3.93;91.55;98227.59;339609;28;18134;-75
2023/12/05 00:03:52;;;;;;;4.00;2.15;;;;;;;3.94;91.68;98230.13;339633;28;17587;-75
2023/12/05 00:04:04;;;;;;;4.65;2.20;;;;;;;3.97;91.30;98234.34;341262;28;4550;-75
2023/12/05 00:04:18;;;;;;;4.23;2.10;;;;;;;3.97;92.02;98224.88;337771;28;16557;-74
2023/12/05 00:04:30;;;;;;;3.63;2.08;;;;;;;3.97;91.59;98230.03;340374;28;5079;-77
2023/12/05 00:04:43;;;;;;;2.75;1.80;;;;;;;3.96;91.04;98228.34;337808;28;17881;-78
2023/12/05 00:04:56;;;;;;;3.47;1.63;;;;;;;3.96;91.04;98223.22;339223;28;5271;-77
2023/12/05 00:05:09;;;;;;;3.25;1.70;;;;;;;4.03;91.76;98223.03;331811;28;8649;-78
2023/12/05 00:05:21;;;;;;;3.30;2.10;;;;;;;4.05;91.81;98231.53;339287;28;4555;-75
2023/12/05 00:05:33;;;;;;;4.80;1.90;;;;;;;4.10;91.54;98229.66;335305;28;18367;-75
2023/12/05 00:05:46;;;;;;;4.80;2.00;;;;;;;4.02;91.25;98226.47;336407;28;5223;-75
2023/12/05 00:05:58;;;;;;;3.97;2.20;;;;;;;3.99;91.17;98228.25;335454;28;11591;-77
2023/12/05 00:06:10;;;;;;;4.00;2.15;;;;;;;3.99;91.44;98225.69;339033;28;5489;-77
2023/12/05 00:06:23;;;;;;;3.80;1.80;;;;;;;4.01;91.39;98225.66;337101;28;18081;-77
2023/12/05 00:06:38;;;;;;;3.75;1.65;;;;;;;3.93;92.49;98228.44;335470;28;4968;-76
2023/12/05 00:06:50;;;;;;;4.07;1.83;;;;;;;3.90;92.88;98228.50;337097;28;18201;-77
2023/12/05 00:07:02;;;;;;;3.85;1.90;;;;;;;3.94;92.47;98227.56;338410;28;13368;-78
2023/12/05 00:07:15;;;;;;;3.67;2.08;;;;;;;3.94;92.54;98219.84;343106;28;4553;-78
2023/12/05 00:07:28;;;;;;;3.00;1.90;;;;;;;3.95;92.67;98230.97;338720;28;19408;-75
2023/12/05 00:07:42;;;;;;;3.33;2.00;;;;;;;3.95;92.69;98231.81;341303;28;4506;-74
2023/12/05 00:07:55;;;;;;;3.00;1.70;;;;;;;3.91;92.49;98216.50;331194;28;18155;-75
2023/12/05 00:08:08;;;;;;;2.30;1.35;;;;;;;3.91;92.56;98224.22;334532;28;13615;-75
2023/12/05 00:08:20;;;;;;;2.38;1.50;;;;;;;3.90;92.66;98220.78;335484;28;5753;-74
2023/12/05 00:08:32;;;;;;;2.50;1.60;;;;;;;3.91;92.39;98232.78;334891;28;8766;-75
2023/12/05 00:08:44;;;;;;;3.42;1.70;;;;;;;3.90;92.59;98225.94;339120;28;4952;-75
2023/12/05 00:08:56;;;;;;;3.80;1.55;;;;;;;3.85;93.17;98230.38;339011;28;5236;-75
2023/12/05 00:09:11;;;;;;;4.28;1.70;;;;;;;3.81;93.10;98228.78;335786;28;17955;-75
2023/12/05 00:09:23;;;;;;;3.78;1.90;;;;;;;3.79;93.30;98225.41;335662;28;12828;-77
2023/12/05 00:09:35;;;;;;;3.85;1.85;;;;;;;3.78;93.51;98228.84;336420;28;16574;-77
2023/12/05 00:09:47;;;;;;;3.38;1.75;;;;;;;3.73;93.61;98230.72;340399;28;5054;-77
2023/12/05 00:09:59;;;;;;;3.05;1.63;;;;;;;3.70;93.94;98230.78;337889;28;18324;-77
2023/12/05 00:10:12;;;;;;;2.97;1.60;;;;;;;3.71;93.82;98223.06;341576;28;5596;-75
2023/12/05 00:10:24;;;;;;;3.20;1.73;;;;;;;3.74;93.45;98227.25;338962;28;17880;-75
2023/12/05 00:10:36;;;;;;;3.85;1.92;;;;;;;3.71;93.68;98222.22;340233;28;4610;-75
2023/12/05 00:10:49;;;;;;;3.15;1.70;;;;;;;3.68;93.96;98228.28;334543;28;16101;-75
2023/12/05 00:11:08;;;;;;;3.00;1.60;;;;;;;3.72;93.78;98229.03;341585;28;5161;-75
2023/12/05 00:11:21;;;;;;;3.47;1.75;;;;;;;3.74;93.44;98219.53;339830;28;17612;-75
2023/12/05 00:11:34;;;;;;;4.05;1.98;;;;;;;3.77;93.62;98222.88;342034;28;12510;-75
2023/12/05 00:11:46;;;;;;;5.03;2.00;;;;;;;3.79;93.05;98225.41;338513;28;17249;-77
2023/12/05 00:11:58;;;;;;;4.18;1.88;;;;;;;3.66;93.11;98229.19;338932;28;4524;-77
2023/12/05 00:12:10;;;;;;;4.55;1.95;;;;;;;3.70;93.28;98220.50;334199;28;18192;-77
2023/12/05 00:12:22;;;;;;;3.90;2.00;;;;;;;3.69;92.88;98224.00;338940;28;4627;-77
2023/12/05 00:12:34;;;;;;;3.30;1.88;;;;;;;3.70;93.15;98234.22;335883;28;18075;-77
2023/12/05 00:12:47;;;;;;;2.88;1.77;;;;;;;3.70;93.94;98225.66;338493;28;4567;-76
2023/12/05 00:13:00;;;;;;;3.00;1.80;;;;;;;3.72;93.46;98223.88;335746;28;18250;-76
2023/12/05 00:13:13;;;;;;;3.17;1.80;;;;;;;3.77;94.13;98228.03;336228;28;4662;-76
2023/12/05 00:13:25;;;;;;;3.20;1.90;;;;;;;3.81;93.72;98215.94;337096;28;18283;-76
2023/12/05 00:13:37;;;;;;;3.95;1.98;;;;;;;3.85;93.41;98220.09;338213;28;5024;-76
2023/12/05 00:13:50;;;;;;;4.70;2.00;;;;;;;3.88;93.42;98217.41;339907;28;4627;-76
2023/12/05 00:14:02;;;;;;;3.55;1.75;;;;;;;3.90;93.08;98220.78;336758;28;18544;-76
2023/12/05 00:14:14;;;;;;;2.20;1.50;;;;;;;3.93;93.20;98217.31;337277;28;12899;-76
2023/12/05 00:14:26;;;;;;;3.22;1.60;;;;;;;3.93;92.91;98218.16;340959;28;4593;-76
2023/12/05 00:14:38;;;;;;;3.53;1.85;;;;;;;3.91;93.11;98225.06;338779;28;5857;-76
2023/12/05 00:14:50;;;;;;;4.13;1.80;;;;;;;3.90;93.03;98231.06;338514;28;18212;-76
2023/12/05 00:15:03;;;;;;;3.70;1.83;;;;;;;3.89;93.11;98216.56;337101;28;5473;-76
2023/12/05 00:15:15;;;;;;;2.78;1.70;;;;;;;3.85;93.35;98220.09;338715;28;18381;-76
2023/12/05 00:15:27;;;;;;;2.60;1.70;;;;;;;3.86;93.66;98223.50;337881;28;5687;-77
2023/12/05 00:15:40;;;;;;;2.65;1.50;;;;;;;3.84;93.28;98218.41;337412;28;18162;-77
2023/12/05 00:15:52;;;;;;;2.67;1.52;;;;;;;3.80;93.71;98217.66;339941;28;4612;-77
2023/12/05 00:16:05;;;;;;;2.65;1.48;;;;;;;3.85;93.40;98220.09;337507;28;12478;-77
2023/12/05 00:16:20;;;;;;;3.53;1.50;;;;;;;3.87;93.41;98220.91;335341;28;4529;-77
2023/12/05 00:16:32;;;;;;;3.33;1.48;;;;;;;3.91;93.22;98222.50;337019;28;18162;-75
2023/12/05 00:16:44;;;;;;;3.45;1.48;;;;;;;3.94;93.64;98222.41;337300;28;10139;-75
2023/12/05 00:16:56;;;;;;;2.78;1.67;;;;;;;3.98;93.10;98223.16;339604;28;4545;-75
2023/12/05 00:17:08;;;;;;;3.17;1.67;;;;;;;3.94;93.42;98219.84;338480;28;4706;-75
2023/12/05 00:17:20;;;;;;;4.20;1.70;;;;;;;3.98;93.77;98226.59;338123;28;18081;-75
2023/12/05 00:17:32;;;;;;;4.68;1.75;;;;;;;3.98;93.32;98221.44;338990;28;5025;-75
2023/12/05 00:17:44;;;;;;;3.55;1.73;;;;;;;3.98;93.52;98220.56;341269;28;13920;-77
2023/12/05 00:17:56;;;;;;;3.15;1.50;;;;;;;3.99;93.64;98220.53;338355;28;18320;-77
2023/12/05 00:18:09;;;;;;;2.65;1.40;;;;;;;3.97;93.48;98221.47;341726;28;5474;-77
2023/12/05 00:18:21;;;;;;;2.63;1.75;;;;;;;3.98;93.70;98221.44;338223;28;17983;-77
2023/12/05 00:18:36;;;;;;;2.80;1.98;;;;;;;4.00;93.29;98219.66;340869;28;5033;-75
2023/12/05 00:18:50;;;;;;;3.63;2.05;;;;;;;4.01;93.74;98215.34;338228;28;18046;-75
2023/12/05 00:19:02;;;;;;;3.20;1.85;;;;;;;4.03;92.91;98220.47;338270;28;17657;-75
2023/12/05 00:19:14;;;;;;;2.88;1.70;;;;;;;4.03;93.55;98217.91;341181;28;4681;-74
2023/12/05 00:19:26;;;;;;;3.03;1.88;;;;;;;4.04;93.26;98219.56;337569;28;18134;-74
2023/12/05 00:19:39;;;;;;;2.78;1.70;;;;;;;4.05;93.14;98216.13;340866;28;4661;-75
2023/12/05 00:19:51;;;;;;;2.95;1.60;;;;;;;4.05;93.50;98216.94;338800;28;18116;-75
2023/12/05 00:20:03;;;;;;;3.03;1.73;;;;;;;4.07;93.66;98220.31;341505;28;5418;-74
2023/12/05 00:20:15;;;;;;;3.75;1.88;;;;;;;4.07;93.26;98220.31;339049;28;12906;-80
2023/12/05 00:20:27;;;;;;;4.35;1.90;;;;;;;4.08;93.29;98218.59;340229;28;4669;-80
2023/12/05 00:20:39;;;;;;;4.53;1.90;;;;;;;4.12;93.20;98221.00;340116;28;5270;-79
2023/12/05 00:20:51;;;;;;;3.70;1.90;;;;;;;4.12;93.21;98218.44;337642;28;4711;-77
2023/12/05 00:21:05;;;;;;;3.17;1.85;;;;;;;4.11;93.18;98216.78;337402;28;17298;-77
2023/12/05 00:21:17;;;;;;;2.88;1.50;;;;;;;4.07;93.44;98214.34;335610;28;18837;-77
2023/12/05 00:21:29;;;;;;;3.40;1.75;;;;;;;4.10;93.47;98219.38;339182;28;5631;-77
2023/12/05 00:21:41;;;;;;;3.67;1.90;;;;;;;4.11;93.23;98221.09;336835;28;13443;-76
2023/12/05 00:21:53;;;;;;;4.05;1.85;;;;;;;4.11;93.21;98218.50;340733;28;4656;-77
2023/12/05 00:22:06;;;;;;;4.43;1.83;;;;;;;4.11;93.03;98218.50;338783;28;13641;-76
2023/12/05 00:22:18;;;;;;;4.53;1.95;;;;;;;4.11;92.99;98215.94;341392;28;4475;-75
2023/12/05 00:22:30;;;;;;;3.47;1.70;;;;;;;4.11;92.85;98226.22;339373;28;5565;-75
2023/12/05 00:22:42;;;;;;;3.42;1.73;;;;;;;4.14;93.41;98220.97;337202;28;19188;-77
2023/12/05 00:22:54;;;;;;;3.08;1.73;;;;;;;4.14;92.80;98213.25;340449;28;5316;-77
2023/12/05 00:23:06;;;;;;;2.95;1.85;;;;;;;4.13;93.17;98214.16;341664;28;4958;-74
2023/12/05 00:23:19;;;;;;;3.30;1.90;;;;;;;4.14;92.86;98223.53;338118;28;17151;-75
2023/12/05 00:23:31;;;;;;;3.33;1.85;;;;;;;4.16;93.22;98219.19;341548;28;4637;-74
2023/12/05 00:23:43;;;;;;;3.05;1.75;;;;;;;4.15;92.60;98220.09;337475;28;16851;-74
2023/12/05 00:23:55;;;;;;;2.85;1.67;;;;;;;4.15;93.03;98217.53;336160;28;4648;-74
2023/12/05 00:24:07;;;;;;;3.30;1.55;;;;;;;4.18;92.70;98220.00;338758;28;13091;-75
2023/12/05 00:24:19;;;;;;;2.90;1.35;;;;;;;4.19;92.42;98224.25;341063;28;4744;-74
2023/12/05 00:24:31;;;;;;;3.67;1.80;;;;;;;4.17;92.46;98220.91;339762;28;5399;-75
2023/12/05 00:24:44;;;;;;;3.22;1.88;;;;;;;4.13;92.01;98214.16;337185;28;15961;-77
2023/12/05 00:24:56;;;;;;;2.83;1.70;;;;;;;4.15;92.22;98213.22;339902;28;4590;-77
2023/12/05 00:25:08;;;;;;;2.85;1.70;;;;;;;4.15;92.53;98213.22;337400;28;17831;-77
2023/12/05 00:25:21;;;;;;;2.78;1.75;;;;;;;4.16;91.78;98219.19;339711;28;4684;-77
2023/12/05 00:25:33;;;;;;;3.92;1.95;;;;;;;4.16;92.30;98219.19;333783;28;4645;-74
2023/12/05 00:25:45;;;;;;;4.05;2.00;;;;;;;4.19;92.30;98216.56;341339;28;4712;-74
2023/12/05 00:25:57;;;;;;;3.42;1.75;;;;;;;4.19;91.95;98221.69;339216;28;5568;-75
2023/12/05 00:26:09;;;;;;;2.50;1.63;;;;;;;4.20;92.10;98221.66;335123;28;18100;-74
2023/12/05 00:26:21;;;;;;;2.42;1.50;;;;;;;4.21;92.89;98219.91;340142;28;5843;-74
2023/12/05 00:26:34;;;;;;;2.38;1.63;;;;;;;4.24;92.31;98221.53;336841;28;17284;-74
2023/12/05 00:26:46;;;;;;;2.30;1.60;;;;;;;4.24;92.87;98217.25;336243;28;5470;-75
2023/12/05 00:26:58;;;;;;;2.35;1.67;;;;;;;4.25;92.70;98212.97;338439;28;18164;-78
2023/12/05 00:27:11;;;;;;;2.35;1.70;;;;;;;4.26;92.68;98214.63;341626;28;4503;-77
2023/12/05 00:27:24;;;;;;;2.63;1.88;;;;;;;4.27;92.17;98217.16;338454;28;16662;-77
2023/12/05 00:27:36;;;;;;;2.80;1.75;;;;;;;4.30;92.46;98218.78;340610;28;5166;-77
2023/12/05 00:27:48;;;;;;;3.05;1.67;;;;;;;4.30;92.37;98214.47;336622;28;17998;-77
2023/12/05 00:28:00;;;;;;;2.85;1.60;;;;;;;4.30;92.72;98211.91;340183;28;4645;-75
2023/12/05 00:28:12;;;;;;;3.13;1.65;;;;;;;4.31;92.01;98216.19;340811;28;5295;-74
2023/12/05 00:28:24;;;;;;;2.70;1.80;;;;;;;4.33;92.27;98216.13;338819;28;18151;-75
2023/12/05 00:28:36;;;;;;;4.03;1.92;;;;;;;4.35;92.36;98216.94;338821;28;4635;-75
2023/12/05 00:28:49;;;;;;;4.22;1.88;;;;;;;4.34;92.01;98216.06;338211;28;18929;-76
2023/12/05 00:29:01;;;;;;;3.58;1.58;;;;;;;4.36;92.55;98222.00;341186;28;4573;-78
2023/12/05 00:29:13;;;;;;;2.63;1.55;;;;;;;4.37;92.37;98223.72;339417;28;5079;-76
2023/12/05 00:29:25;;;;;;;2.83;1.50;;;;;;;4.38;92.14;98215.09;340569;28;17493;-79
2023/12/05 00:29:37;;;;;;;2.72;1.52;;;;;;;4.38;91.81;98220.22;341720;28;4729;-79
2023/12/05 00:29:49;;;;;;;2.33;1.63;;;;;;;4.39;91.70;98216.78;337286;28;18220;-79
2023/12/05 00:30:03;;;;;;;2.72;1.75;;;;;;;4.38;91.50;98217.66;333147;28;4654;-80
2023/12/05 00:30:15;;;;;;;3.45;1.67;;;;;;;4.33;91.44;98216.97;340544;28;19160;-79
2023/12/05 00:30:27;;;;;;;3.45;1.58;;;;;;;4.33;91.53;98216.13;343469;28;4478;-77
2023/12/05 00:30:40;;;;;;;3.42;1.73;;;;;;;4.32;91.82;98211.88;337335;28;19250;-76
2023/12/05 00:30:52;;;;;;;3.53;1.92;;;;;;;4.33;91.59;98216.97;340815;28;5358;-77
2023/12/05 00:31:04;;;;;;;3.50;1.83;;;;;;;4.34;91.01;98220.38;334496;28;5483;-77
2023/12/05 00:31:16;;;;;;;3.17;1.67;;;;;;;4.33;91.39;98229.84;341396;28;4681;-76
2023/12/05 00:31:28;;;;;;;2.03;1.42;;;;;;;4.35;91.71;98219.50;340817;28;4554;-76
2023/12/05 00:31:42;;;;;;;2.15;1.50;;;;;;;4.35;91.39;98222.91;335589;28;18302;-77
2023/12/05 00:31:54;;;;;;;2.45;1.48;;;;;;;4.31;91.20;98220.50;337231;28;12361;-79
2023/12/05 00:32:06;;;;;;;2.75;1.48;;;;;;;4.27;91.53;98211.19;339960;28;4688;-79
2023/12/05 00:32:18;;;;;;;4.05;1.65;;;;;;;4.30;91.39;98217.06;339184;28;4823;-79
2023/12/05 00:32:31;;;;;;;3.72;1.73;;;;;;;4.30;91.69;98211.91;336152;28;16642;-79
2023/12/05 00:32:43;;;;;;;3.20;1.75;;;;;;;4.25;91.55;98208.66;338422;28;5071;-77
2023/12/05 00:32:56;;;;;;;3.10;1.80;;;;;;;4.21;91.30;98212.19;337714;28;17943;-76
2023/12/05 00:33:08;;;;;;;2.90;1.80;;;;;;;4.22;91.99;98213.88;340299;28;4601;-76
2023/12/05 00:33:20;;;;;;;2.38;1.67;;;;;;;4.16;91.78;98217.47;336732;28;13365;-77
2023/12/05 00:33:33;;;;;;;2.50;1.60;;;;;;;4.13;92.15;98214.16;335827;28;5091;-78
2023/12/05 00:33:47;;;;;;;3.13;1.77;;;;;;;4.16;92.64;98216.63;334125;28;13311;-76
2023/12/05 00:33:59;;;;;;;3.50;2.05;;;;;;;4.18;91.85;98218.25;334887;28;4704;-77
2023/12/05 00:34:11;;;;;;;3.15;1.98;;;;;;;4.18;91.92;98218.25;336843;28;17869;-79
2023/12/05 00:34:24;;;;;;;3.00;1.52;;;;;;;4.21;91.84;98222.50;338210;28;4667;-79
2023/12/05 00:34:36;;;;;;;3.53;1.75;;;;;;;4.22;91.79;98219.00;337482;28;18375;-79
2023/12/05 00:34:48;;;;;;;4.00;1.95;;;;;;;4.22;91.99;98216.44;340548;28;4971;-79
2023/12/05 00:35:00;;;;;;;3.75;1.75;;;;;;;4.23;92.56;98218.13;338388;28;17673;-75
2023/12/05 00:35:14;;;;;;;4.03;1.83;;;;;;;4.24;91.78;98216.41;341629;28;4534;-74
2023/12/05 00:35:26;;;;;;;4.93;2.03;;;;;;;4.23;92.58;98220.72;334398;28;18132;-74
2023/12/05 00:35:39;;;;;;;4.43;1.98;;;;;;;4.24;91.77;98214.66;338728;28;5351;-75
2023/12/05 00:35:52;;;;;;;4.28;2.03;;;;;;;4.25;92.59;98221.50;338099;28;18654;-75
2023/12/05 00:36:04;;;;;;;4.07;2.08;;;;;;;4.28;92.77;98218.81;341035;28;4649;-75
2023/12/05 00:36:17;;;;;;;4.00;1.92;;;;;;;4.30;92.50;98213.66;338281;28;18790;-76
2023/12/05 00:36:29;;;;;;;3.92;1.80;;;;;;;4.29;91.95;98212.81;340749;28;4526;-79
2023/12/05 00:36:41;;;;;;;3.22;1.60;;;;;;;4.30;92.42;98222.19;338640;28;5088;-79
2023/12/05 00:36:53;;;;;;;2.38;1.70;;;;;;;4.31;92.20;98216.19;335576;28;4611;-80
2023/12/05 00:37:05;;;;;;;2.45;1.80;;;;;;;4.33;91.88;98216.97;340050;28;5453;-80
2023/12/05 00:37:19;;;;;;;3.17;1.80;;;;;;;4.33;92.17;98216.13;337839;28;4504;-76
2023/12/05 00:37:31;;;;;;;4.63;1.70;;;;;;;4.31;92.33;98213.59;337916;28;12434;-76
2023/12/05 00:37:43;;;;;;;4.30;1.75;;;;;;;4.31;91.66;98213.59;340565;28;4905;-76
2023/12/05 00:37:55;;;;;;;3.47;1.60;;;;;;;4.31;91.96;98213.59;341385;28;4611;-75
2023/12/05 00:38:08;;;;;;;2.53;1.80;;;;;;;4.36;91.85;98213.47;338778;28;17937;-75
2023/12/05 00:38:20;;;;;;;3.95;1.65;;;;;;;4.37;91.66;98215.16;340070;28;4989;-75
2023/12/05 00:38:33;;;;;;;5.03;2.10;;;;;;;4.37;91.57;98218.56;331390;28;16406;-75
2023/12/05 00:38:45;;;;;;;3.90;1.90;;;;;;;4.39;91.57;98218.53;340521;28;4759;-77
2023/12/05 00:38:57;;;;;;;3.42;1.73;;;;;;;4.39;91.46;98227.06;337723;28;17826;-77
2023/12/05 00:39:09;;;;;;;3.88;1.60;;;;;;;4.42;91.61;98215.84;340291;28;4495;-77
2023/12/05 00:39:21;;;;;;;3.63;1.65;;;;;;;4.44;91.57;98213.22;340555;28;8477;-77
2023/12/05 00:39:34;;;;;;;3.70;1.65;;;;;;;4.45;91.59;98217.47;337179;28;18325;-76
2023/12/05 00:39:46;;;;;;;2.47;1.60;;;;;;;4.43;91.58;98216.66;341140;28;4650;-76
2023/12/05 00:39:58;;;;;;;2.00;1.50;;;;;;;4.43;91.25;98217.53;337519;28;5327;-76
2023/12/05 00:40:10;;;;;;;2.03;1.63;;;;;;;4.45;91.65;98222.63;339535;28;5282;-75
2023/12/05 00:40:28;;;;;;;2.80;1.70;;;;;;;4.46;91.55;98216.59;336827;28;18098;-75
2023/12/05 00:40:40;;;;;;;3.05;1.60;;;;;;;4.50;91.52;98223.31;336633;28;17620;-77
2023/12/05 00:40:52;;;;;;;2.63;1.80;;;;;;;4.50;90.98;98215.59;337776;28;5514;-76
2023/12/05 00:41:04;;;;;;;2.15;1.70;;;;;;;4.54;90.93;98218.03;340498;28;4642;-78
2023/12/05 00:41:17;;;;;;;1.92;1.52;;;;;;;4.55;91.05;98221.47;339943;28;5165;-79
2023/12/05 00:41:30;;;;;;;2.53;1.65;;;;;;;4.59;90.70;98218.75;332320;28;18009;-78
2023/12/05 00:41:42;;;;;;;2.65;1.70;;;;;;;4.61;91.01;98221.28;340457;28;4511;-79
2023/12/05 00:41:54;;;;;;;2.80;1.50;;;;;;;4.64;90.43;98216.00;337769;28;17958;-79
2023/12/05 00:42:06;;;;;;;2.60;1.52;;;;;;;4.64;90.79;98216.00;341332;28;4620;-77
2023/12/05 00:42:18;;;;;;;3.58;1.70;;;;;;;4.63;90.89;98218.63;337478;28;13399;-77
2023/12/05 00:42:30;;;;;;;3.65;1.70;;;;;;;4.63;90.64;98223.78;340354;28;4640;-77
2023/12/05 00:42:42;;;;;;;3.30;1.50;;;;;;;4.63;90.58;98224.63;342991;28;5451;-76
2023/12/05 00:42:54;;;;;;;4.10;1.60;;;;;;;4.59;90.64;98223.06;339096;28;16939;-76
2023/12/05 00:43:06;;;;;;;4.80;1.80;;;;;;;4.59;90.89;98215.34;341536;28;4617;-76
2023/12/05 00:43:18;;;;;;;4.88;1.90;;;;;;;4.60;90.47;98224.72;328967;28;16286;-75
2023/12/05 00:43:30;;;;;;;4.57;1.83;;;;;;;4.62;90.32;98220.38;337227;28;6295;-77
2023/12/05 00:43:42;;;;;;;3.25;1.60;;;;;;;4.58;90.62;98217.03;341300;28;6315;-76
2023/12/05 00:43:54;;;;;;;2.35;1.58;;;;;;;4.60;90.85;98219.56;337749;28;17884;-76
2023/12/05 00:44:07;;;;;;;3.13;1.63;;;;;;;4.60;90.48;98217.00;335505;28;4854;-76
2023/12/05 00:44:19;;;;;;;3.80;1.80;;;;;;;4.62;91.01;98214.38;335381;28;17501;-79
2023/12/05 00:44:31;;;;;;;3.58;1.80;;;;;;;4.62;90.88;98222.94;339716;28;5593;-78
2023/12/05 00:44:43;;;;;;;2.78;1.58;;;;;;;4.62;90.46;98222.94;337989;28;13455;-78
2023/12/05 00:44:55;;;;;;;2.50;1.40;;;;;;;4.64;90.86;98221.16;340813;28;5298;-76
2023/12/05 00:45:09;;;;;;;2.70;1.38;;;;;;;4.65;90.30;98217.72;341046;28;4691;-75
2023/12/05 00:45:22;;;;;;;2.38;1.33;;;;;;;4.66;90.71;98234.81;337663;28;18158;-75
2023/12/05 00:45:34;;;;;;;2.35;1.40;;;;;;;4.66;90.06;98219.38;337888;28;8688;-75
2023/12/05 00:45:46;;;;;;;2.67;1.48;;;;;;;4.65;90.72;98222.84;335250;28;5269;-76
2023/12/05 00:45:58;;;;;;;2.78;1.60;;;;;;;4.66;90.64;98219.38;341030;28;4880;-77
2023/12/05 00:46:12;;;;;;;2.70;1.63;;;;;;;4.65;89.99;98217.72;337384;28;17842;-77
2023/12/05 00:46:24;;;;;;;2.97;1.70;;;;;;;4.62;90.64;98222.94;336840;28;17199;-77
2023/12/05 00:46:37;;;;;;;2.30;1.60;;;;;;;4.63;90.95;98214.34;341469;28;4508;-77
2023/12/05 00:46:50;;;;;;;2.72;1.63;;;;;;;4.60;90.56;98214.44;338076;28;18294;-75
2023/12/05 00:47:04;;;;;;;2.78;1.60;;;;;;;4.61;90.49;98216.13;336398;28;4531;-75
2023/12/05 00:47:16;;;;;;;2.15;1.45;;;;;;;4.62;90.73;98212.66;338437;28;17960;-77
2023/12/05 00:47:28;;;;;;;2.35;1.40;;;;;;;4.64;91.28;98216.00;339836;28;4923;-77
2023/12/05 00:47:41;;;;;;;3.08;1.63;;;;;;;4.62;90.63;98220.38;333256;28;17992;-76
2023/12/05 00:47:53;;;;;;;2.97;1.65;;;;;;;4.62;90.67;98228.09;341013;28;5329;-76
2023/12/05 00:48:05;;;;;;;3.63;1.63;;;;;;;4.60;90.81;98219.56;337340;28;21734;-78
2023/12/05 00:48:18;;;;;;;3.28;1.48;;;;;;;4.56;91.21;98220.56;339695;28;4733;-77
2023/12/05 00:48:30;;;;;;;1.98;1.33;;;;;;;4.55;90.86;98221.47;336938;28;18123;-77
2023/12/05 00:48:43;;;;;;;2.00;1.33;;;;;;;4.57;90.85;98219.69;341067;28;4759;-77
2023/12/05 00:48:55;;;;;;;2.17;1.52;;;;;;;4.56;91.14;98218.00;336953;28;4790;-77
2023/12/05 00:49:08;;;;;;;3.22;1.77;;;;;;;4.58;90.95;98216.22;341183;28;4838;-77
2023/12/05 00:49:20;;;;;;;3.35;1.88;;;;;;;4.59;90.74;98218.75;337737;28;12203;-74
2023/12/05 00:49:35;;;;;;;3.17;1.48;;;;;;;4.59;90.63;98218.75;340898;28;4687;-74
2023/12/05 00:49:47;;;;;;;2.53;1.40;;;;;;;4.58;90.91;98216.22;337557;28;16657;-77
2023/12/05 00:49:59;;;;;;;1.88;1.30;;;;;;;4.61;91.32;98216.13;336362;28;4576;-77
2023/12/05 00:50:11;;;;;;;1.88;1.30;;;;;;;4.60;90.71;98220.41;337394;28;18238;-77
2023/12/05 00:50:25;;;;;;;2.17;1.48;;;;;;;4.64;91.26;98213.44;342000;28;4898;-78
2023/12/05 00:50:48;;;;;;;3.25;1.40;;;;;;;4.67;90.77;98215.94;337115;28;17248;-80
2023/12/05 00:51:00;;;;;;;3.38;1.55;;;;;;;4.66;91.26;98221.97;338088;28;13388;-79
2023/12/05 00:51:12;;;;;;;3.03;1.65;;;;;;;4.63;90.92;98219.50;337880;28;18099;-79
2023/12/05 00:51:24;;;;;;;2.75;1.60;;;;;;;4.63;91.18;98222.06;338840;28;6127;-78
2023/12/05 00:51:36;;;;;;;2.40;1.60;;;;;;;4.67;90.99;98213.34;337374;28;18300;-76
2023/12/05 00:51:48;;;;;;;2.97;1.60;;;;;;;4.71;90.84;98212.38;337806;28;4871;-76
2023/12/05 00:52:01;;;;;;;3.05;1.63;;;;;;;4.68;90.68;98217.59;337300;28;5510;-76
2023/12/05 00:52:13;;;;;;;3.17;1.75;;;;;;;4.66;90.73;98219.38;339674;28;4708;-76
2023/12/05 00:52:25;;;;;;;2.88;1.83;;;;;;;4.68;90.46;98217.59;336201;28;12341;-76
2023/12/05 00:52:37;;;;;;;2.67;1.75;;;;;;;4.70;90.91;98220.13;337870;28;5101;-76
2023/12/05 00:52:49;;;;;;;2.42;1.50;;;;;;;4.69;90.57;98219.28;338217;28;5143;-78
2023/12/05 00:53:01;;;;;;;2.60;1.48;;;;;;;4.71;90.20;98221.78;332255;28;4825;-78
2023/12/05 00:53:13;;;;;;;3.10;1.48;;;;;;;4.71;90.59;98217.50;338096;28;4609;-78
2023/12/05 00:53:25;;;;;;;2.97;1.48;;;;;;;4.70;90.55;98218.38;338362;28;5080;-78
2023/12/05 00:53:37;;;;;;;2.65;1.55;;;;;;;4.72;91.01;98219.19;331365;28;12604;-78
2023/12/05 00:53:49;;;;;;;3.45;1.75;;;;;;;4.69;90.46;98219.28;338809;28;4789;-79
2023/12/05 00:54:01;;;;;;;3.08;1.50;;;;;;;4.68;90.65;98215.03;336439;28;12468;-79
2023/12/05 00:54:13;;;;;;;2.35;1.33;;;;;;;4.65;91.22;98212.56;339557;28;5476;-77
2023/12/05 00:54:27;;;;;;;2.40;1.60;;;;;;;4.67;91.00;98215.94;336663;28;17964;-76
2023/12/05 00:54:39;;;;;;;2.40;1.63;;;;;;;4.70;90.95;98217.56;340735;28;5692;-76
2023/12/05 00:54:51;;;;;;;2.35;1.70;;;;;;;4.71;90.79;98214.94;340097;28;5057;-74
2023/12/05 00:55:04;;;;;;;2.28;1.60;;;;;;;4.68;91.35;98216.75;341131;28;4540;-77
2023/12/05 00:55:16;;;;;;;2.45;1.60;;;;;;;4.68;90.63;98217.59;336675;28;13912;-75
2023/12/05 00:55:28;;;;;;;2.55;1.70;;;;;;;4.67;90.99;98215.06;341043;28;5324;-76
2023/12/05 00:55:40;;;;;;;2.75;1.85;;;;;;;4.68;90.90;98217.59;339612;28;4508;-75
2023/12/05 00:55:52;;;;;;;3.15;2.00;;;;;;;4.68;90.44;98211.63;333782;28;13729;-76
2023/12/05 00:56:10;;;;;;;2.67;1.70;;;;;;;4.66;90.49;98209.09;338873;28;4810;-74
2023/12/05 00:56:22;;;;;;;2.42;1.50;;;;;;;4.64;91.12;98213.44;337057;28;17759;-73
2023/12/05 00:56:34;;;;;;;2.75;1.70;;;;;;;4.69;90.93;98209.00;338390;28;5326;-74
2023/12/05 00:56:46;;;;;;;2.40;1.60;;;;;;;4.72;90.86;98219.19;339773;28;4594;-74
2023/12/05 00:56:58;;;;;;;2.03;1.48;;;;;;;4.74;91.19;98217.41;336272;28;19028;-74
2023/12/05 00:57:11;;;;;;;2.30;1.33;;;;;;;4.76;90.53;98215.63;333666;28;4725;-75
2023/12/05 00:57:23;;;;;;;3.30;1.80;;;;;;;4.78;90.84;98213.84;336640;28;17886;-76
2023/12/05 00:57:35;;;;;;;3.60;2.53;;;;;;;4.82;91.02;98213.75;338290;28;5263;-80
2023/12/05 00:57:47;;;;;;;5.38;3.45;;;;;;;4.82;91.02;98212.00;336299;28;17991;-78
2023/12/05 00:57:59;;;;;;;4.88;3.15;;;;;;;4.83;90.60;98215.41;340533;28;4497;-78
2023/12/05 00:58:11;;;;;;;3.65;2.63;;;;;;;4.83;90.72;98215.41;341183;28;4640;-78
2023/12/05 00:58:23;;;;;;;3.40;2.50;;;;;;;4.77;90.31;98219.88;336849;28;17913;-77
2023/12/05 00:58:35;;;;;;;3.30;2.30;;;;;;;4.77;90.37;98222.47;338246;28;4820;-76
2023/12/05 00:58:47;;;;;;;4.22;2.40;;;;;;;4.75;90.57;98213.94;335846;28;5097;-76
2023/12/05 00:58:59;;;;;;;4.35;2.45;;;;;;;4.73;91.06;98215.72;336564;28;18185;-77
2023/12/05 00:59:12;;;;;;;3.67;2.25;;;;;;;4.70;90.67;98218.38;340964;28;5122;-76
2023/12/05 00:59:24;;;;;;;3.30;2.03;;;;;;;4.72;91.10;98216.59;337915;28;17878;-78
2023/12/05 00:59:36;;;;;;;3.95;2.00;;;;;;;4.73;90.91;98215.72;339768;28;5061;-78
2023/12/05 00:59:48;;;;;;;3.85;2.00;;;;;;;4.75;91.38;98219.09;337897;28;14276;-78
2023/12/05 01:00:00;;;;;;;3.08;1.85;;;;;;;4.77;90.76;98217.31;340822;28;4635;-78
2023/12/05 01:00:13;;;;;;;2.30;1.83;;;;;;;4.81;90.66;98212.91;335763;28;5275;-78
2023/12/05 01:00:25;;;;;;;3.60;1.80;;;;;;;4.84;90.82;98217.13;336832;28;17801;-79
2023/12/05 01:00:38;;;;;;;3.75;1.80;;;;;;;4.84;90.64;98214.53;338689;28;4735;-76